createdAt,value
2019-02-03T00:02:21.190Z,1.30
2019-02-03T00:04:51.686Z,1.31
2019-02-03T00:07:22.294Z,1.29
2019-02-03T00:09:52.852Z,1.20
2019-02-03T00:12:23.750Z,1.20
2019-02-03T00:14:54.319Z,1.25
2019-02-03T00:17:24.796Z,1.28
2019-02-03T00:19:55.294Z,1.24
2019-02-03T00:22:25.778Z,1.29
2019-02-03T00:24:56.669Z,1.28
2019-02-03T00:27:27.186Z,1.31
2019-02-03T00:29:57.756Z,1.37
2019-02-03T00:32:28.220Z,1.35
2019-02-03T00:34:58.690Z,1.30
2019-02-03T00:37:29.540Z,1.33
2019-02-03T00:40:00.023Z,1.32
2019-02-03T00:42:30.573Z,1.30
2019-02-03T00:45:01.726Z,1.28
2019-02-03T00:47:32.230Z,1.24
2019-02-03T00:50:02.896Z,1.23
2019-02-03T00:52:33.460Z,1.33
2019-02-03T00:55:04.818Z,1.25
2019-02-03T00:57:35.345Z,1.33
2019-02-03T01:00:07.959Z,1.28
2019-02-03T01:02:38.469Z,1.23
2019-02-03T01:05:13.993Z,1.16
2019-02-03T01:07:44.557Z,1.22
2019-02-03T01:10:20.748Z,1.10
2019-02-03T01:12:51.617Z,1.09
2019-02-03T01:15:22.308Z,1.02
2019-02-03T01:17:52.946Z,1.00
2019-02-03T01:20:23.678Z,1.02
2019-02-03T01:22:54.294Z,1.03
2019-02-03T01:25:24.813Z,1.02
2019-02-03T01:27:55.272Z,0.99
2019-02-03T01:30:25.751Z,1.00
2019-02-03T01:32:56.296Z,1.02
2019-02-03T01:35:26.797Z,1.03
2019-02-03T01:37:57.456Z,1.00
2019-02-03T01:40:28.002Z,0.99
2019-02-03T01:42:58.496Z,0.99
2019-02-03T01:45:28.980Z,1.01
2019-02-03T01:47:59.514Z,1.06
2019-02-03T01:50:30.180Z,0.97
2019-02-03T01:53:00.662Z,0.99
2019-02-03T01:55:31.215Z,1.00
2019-02-03T01:58:01.689Z,1.03
2019-02-03T02:00:32.284Z,1.00
2019-02-03T02:03:03.307Z,0.90
2019-02-03T02:05:33.812Z,0.99
2019-02-03T02:08:04.303Z,1.00
2019-02-03T02:10:34.850Z,0.97
2019-02-03T02:13:08.137Z,0.95
2019-02-03T02:15:38.684Z,0.98
2019-02-03T02:18:09.226Z,0.98
2019-02-03T02:20:39.701Z,1.00
2019-02-03T02:23:10.195Z,1.00
2019-02-03T02:25:40.761Z,1.05
2019-02-03T02:28:11.239Z,0.95
2019-02-03T02:30:41.808Z,1.00
2019-02-03T02:33:12.319Z,1.00
2019-02-03T02:35:42.971Z,1.01
2019-02-03T02:38:13.530Z,0.99
2019-02-03T02:40:44.345Z,0.95
2019-02-03T02:43:14.821Z,0.94
2019-02-03T02:45:45.283Z,0.91
2019-02-03T02:48:15.863Z,0.82
2019-02-03T02:50:46.792Z,0.83
2019-02-03T02:53:17.387Z,0.85
2019-02-03T02:55:47.899Z,0.89
2019-02-03T02:58:18.380Z,0.87
2019-02-03T03:00:48.864Z,0.82
2019-02-03T03:03:19.402Z,0.90
2019-02-03T03:05:50.187Z,0.92
2019-02-03T03:08:20.658Z,0.84
2019-02-03T03:10:51.214Z,0.84
2019-02-03T03:13:21.679Z,0.89
2019-02-03T03:15:52.157Z,0.92
2019-02-03T03:18:23.034Z,0.91
2019-02-03T03:20:53.493Z,0.89
2019-02-03T03:23:24.001Z,0.97
2019-02-03T03:25:54.556Z,0.89
2019-02-03T03:28:25.048Z,0.92
2019-02-03T03:30:55.716Z,0.89
2019-02-03T03:33:26.249Z,0.90
2019-02-03T03:35:56.750Z,0.91
2019-02-03T03:38:32.124Z,0.93
2019-02-03T03:40:59.467Z,0.91
2019-02-03T03:43:30.110Z,0.92
2019-02-03T03:46:00.644Z,0.92
2019-02-03T03:51:13.671Z,1.08
2019-02-03T03:53:44.559Z,0.97
2019-02-03T03:56:16.539Z,0.94
2019-02-03T03:58:47.185Z,0.90
2019-02-03T04:01:17.803Z,0.92
2019-02-03T04:03:48.384Z,0.87
2019-02-03T04:06:19.291Z,0.87
2019-02-03T04:08:49.902Z,0.85
2019-02-03T04:11:20.506Z,0.84
2019-02-03T04:13:51.522Z,0.77
2019-02-03T04:16:23.411Z,0.74
2019-02-03T04:18:54.537Z,0.80
2019-02-03T04:21:25.113Z,0.81
2019-02-03T04:23:55.719Z,0.77
2019-02-03T04:26:26.358Z,0.74
2019-02-03T04:28:57.156Z,0.83
2019-02-03T04:31:27.727Z,0.78
2019-02-03T04:33:58.384Z,0.83
2019-02-03T04:36:29.379Z,0.85
2019-02-03T04:38:59.957Z,0.87
2019-02-03T04:41:30.574Z,0.91
2019-02-03T04:44:01.224Z,0.92
2019-02-03T04:46:31.731Z,0.96
2019-02-03T04:49:02.543Z,0.96
2019-02-03T04:51:33.089Z,0.99
2019-02-03T04:54:03.661Z,1.04
2019-02-03T04:56:34.499Z,1.03
2019-02-03T04:59:06.361Z,1.00
2019-02-03T05:01:37.044Z,1.06
2019-02-03T05:04:07.822Z,1.14
2019-02-03T05:06:38.440Z,1.04
2019-02-03T05:09:11.522Z,1.01
2019-02-03T05:11:42.452Z,1.01
2019-02-03T05:14:13.440Z,1.06
2019-02-03T05:16:44.186Z,0.97
2019-02-03T05:19:14.929Z,1.02
2019-02-03T05:21:45.697Z,1.04
2019-02-03T05:24:16.511Z,1.03
2019-02-03T05:26:47.235Z,1.07
2019-02-03T05:29:17.864Z,1.00
2019-02-03T05:31:48.571Z,1.10
2019-02-03T05:34:19.346Z,1.07
2019-02-03T05:36:49.995Z,1.05
2019-02-03T05:39:25.168Z,1.06
2019-02-03T05:41:53.221Z,0.95
2019-02-03T05:44:23.847Z,0.95
2019-02-03T05:46:54.587Z,0.92
2019-02-03T05:49:25.371Z,1.11
2019-02-03T05:51:56.212Z,1.07
2019-02-03T05:54:26.938Z,1.02
2019-02-03T05:56:57.813Z,1.00
2019-02-03T05:59:28.518Z,1.08
2019-02-03T06:01:59.211Z,1.08
2019-02-03T06:04:29.946Z,0.98
2019-02-03T06:07:00.541Z,1.05
2019-02-03T06:09:36.741Z,1.01
2019-02-03T06:12:03.584Z,0.99
2019-02-03T06:14:34.314Z,1.06
2019-02-03T06:17:04.966Z,1.04
2019-02-03T06:19:35.592Z,1.05
2019-02-03T06:22:06.442Z,0.98
2019-02-03T06:24:42.297Z,0.99
2019-02-03T06:27:12.964Z,1.06
2019-02-03T06:29:43.596Z,1.12
2019-02-03T06:32:14.192Z,1.10
2019-02-03T06:34:44.926Z,1.12
2019-02-03T06:37:15.515Z,1.14
2019-02-03T06:39:48.574Z,1.14
2019-02-03T06:42:18.431Z,1.13
2019-02-03T06:44:49.061Z,1.09
2019-02-03T06:47:23.934Z,1.07
2019-02-03T06:49:54.572Z,1.08
2019-02-03T06:52:25.113Z,1.13
2019-02-03T06:54:55.685Z,1.19
2019-02-03T06:57:26.173Z,1.20
2019-02-03T06:59:56.649Z,1.15
2019-02-03T07:02:27.188Z,1.15
2019-02-03T07:04:57.681Z,1.17
2019-02-03T07:07:28.160Z,1.04
2019-02-03T07:10:00.777Z,1.03
2019-02-03T07:12:30.878Z,1.06
2019-02-03T07:15:01.410Z,1.12
2019-02-03T07:17:31.944Z,1.13
2019-02-03T07:20:02.463Z,1.16
2019-02-03T07:22:33.033Z,1.18
2019-02-03T07:25:03.603Z,1.10
2019-02-03T07:27:34.135Z,1.12
2019-02-03T07:30:05.504Z,1.13
2019-02-03T07:32:36.044Z,1.13
2019-02-03T07:35:07.209Z,1.18
2019-02-03T07:37:38.030Z,1.16
2019-02-03T07:40:12.504Z,1.18
2019-02-03T07:42:40.961Z,1.09
2019-02-03T07:45:11.499Z,1.10
2019-02-03T07:47:42.047Z,1.09
2019-02-03T07:50:12.536Z,1.02
2019-02-03T07:52:43.012Z,1.04
2019-02-03T07:55:13.626Z,1.09
2019-02-03T07:57:44.422Z,1.05
2019-02-03T08:00:15.232Z,1.06
2019-02-03T08:02:45.892Z,1.11
2019-02-03T08:05:16.485Z,1.02
2019-02-03T08:07:46.982Z,1.00
2019-02-03T08:10:24.733Z,1.03
2019-02-03T08:12:50.197Z,1.05
2019-02-03T08:15:20.682Z,1.00
2019-02-03T08:17:51.267Z,1.09
2019-02-03T08:20:21.909Z,1.11
2019-02-03T08:22:52.450Z,1.06
2019-02-03T08:25:23.122Z,1.05
2019-02-03T08:27:53.651Z,1.05
2019-02-03T08:30:24.862Z,0.97
2019-02-03T08:32:55.426Z,0.99
2019-02-03T08:35:25.955Z,1.00
2019-02-03T08:37:56.434Z,0.99
2019-02-03T08:40:36.548Z,0.96
2019-02-03T08:43:00.067Z,1.01
2019-02-03T08:45:30.511Z,1.09
2019-02-03T08:48:01.080Z,1.21
2019-02-03T08:50:31.556Z,1.43
2019-02-03T08:53:02.134Z,1.47
2019-02-03T08:55:32.684Z,1.56
2019-02-03T08:58:03.183Z,1.52
2019-02-03T09:00:33.691Z,1.42
2019-02-03T09:03:04.240Z,1.35
2019-02-03T09:05:34.745Z,1.35
2019-02-03T09:08:05.327Z,1.33
2019-02-03T09:10:47.787Z,1.29
2019-02-03T09:13:09.754Z,1.30
2019-02-03T09:15:40.468Z,1.32
2019-02-03T09:18:11.036Z,1.30
2019-02-03T09:20:41.535Z,1.38
2019-02-03T09:23:12.072Z,1.46
2019-02-03T09:25:42.586Z,1.45
2019-02-03T09:28:13.112Z,1.49
2019-02-03T09:30:43.743Z,1.56
2019-02-03T09:33:14.306Z,1.66
2019-02-03T09:35:44.798Z,1.69
2019-02-03T09:38:15.251Z,1.70
2019-02-03T09:40:45.757Z,1.78
2019-02-03T09:43:16.637Z,1.79
2019-02-03T09:45:47.196Z,1.84
2019-02-03T09:48:17.924Z,1.90
2019-02-03T09:50:48.406Z,1.94
2019-02-03T09:53:18.879Z,2.01
2019-02-03T09:55:49.663Z,2.02
2019-02-03T09:58:20.165Z,2.08
2019-02-03T10:00:50.670Z,2.15
2019-02-03T10:03:21.199Z,2.26
2019-02-03T10:05:51.670Z,2.27
2019-02-03T10:08:22.174Z,2.26
2019-02-03T10:10:52.669Z,2.35
2019-02-03T10:13:23.277Z,2.34
2019-02-03T10:15:53.763Z,2.44
2019-02-03T10:18:24.701Z,2.59
2019-02-03T10:20:55.246Z,2.66
2019-02-03T10:23:25.762Z,2.69
2019-02-03T10:25:56.297Z,2.78
2019-02-03T10:28:26.738Z,2.76
2019-02-03T10:30:57.219Z,2.76
2019-02-03T10:33:27.833Z,2.88
2019-02-03T10:35:58.344Z,2.90
2019-02-03T10:38:28.830Z,3.04
2019-02-03T10:40:59.374Z,2.96
2019-02-03T10:43:29.836Z,2.96
2019-02-03T10:46:00.434Z,2.99
2019-02-03T10:48:31.008Z,3.15
2019-02-03T10:51:01.539Z,3.09
2019-02-03T10:53:33.769Z,3.10
2019-02-03T10:56:04.613Z,3.14
2019-02-03T10:58:35.114Z,3.24
2019-02-03T11:01:05.922Z,3.32
2019-02-03T11:03:36.460Z,3.36
2019-02-03T11:06:07.108Z,3.35
2019-02-03T11:08:37.641Z,3.36
2019-02-03T11:11:08.268Z,3.46
2019-02-03T11:13:38.834Z,3.35
2019-02-03T11:16:09.346Z,3.40
2019-02-03T11:18:39.830Z,3.52
2019-02-03T11:21:11.573Z,3.49
2019-02-03T11:23:43.450Z,3.51
2019-02-03T11:26:15.250Z,3.58
2019-02-03T11:28:45.725Z,3.49
2019-02-03T11:31:16.312Z,3.56
2019-02-03T11:33:46.840Z,3.63
2019-02-03T11:36:17.293Z,3.74
2019-02-03T11:38:47.825Z,3.71
2019-02-03T11:41:18.437Z,3.81
2019-02-03T11:43:48.976Z,3.89
2019-02-03T11:46:19.449Z,3.91
2019-02-03T11:48:50.008Z,3.84
2019-02-03T11:51:20.458Z,3.90
2019-02-03T11:53:50.965Z,3.86
2019-02-03T11:56:21.452Z,3.79
2019-02-03T11:58:51.944Z,3.90
2019-02-03T12:01:22.423Z,3.83
2019-02-03T12:03:52.973Z,3.97
2019-02-03T12:06:23.444Z,3.81
2019-02-03T12:08:53.945Z,3.85
2019-02-03T12:11:24.460Z,3.99
2019-02-03T12:13:54.961Z,3.87
2019-02-03T12:16:25.445Z,3.90
2019-02-03T12:18:56.110Z,4.04
2019-02-03T12:21:26.511Z,4.06
2019-02-03T12:23:57.027Z,4.06
2019-02-03T12:26:27.531Z,4.16
2019-02-03T12:28:58.113Z,4.08
2019-02-03T12:31:28.688Z,3.96
2019-02-03T12:33:59.217Z,3.96
2019-02-03T12:36:29.716Z,3.94
2019-02-03T12:39:00.189Z,4.06
2019-02-03T12:41:30.781Z,3.96
2019-02-03T12:44:01.629Z,4.01
2019-02-03T12:46:32.153Z,4.13
2019-02-03T12:49:02.659Z,3.99
2019-02-03T12:51:33.160Z,3.94
2019-02-03T12:54:03.675Z,3.94
2019-02-03T12:56:34.344Z,4.06
2019-02-03T12:59:04.819Z,4.10
2019-02-03T13:01:35.328Z,4.14
2019-02-03T13:04:05.968Z,3.97
2019-02-03T13:06:36.456Z,4.07
2019-02-03T13:09:10.716Z,4.17
2019-02-03T13:11:41.364Z,4.13
2019-02-03T13:14:12.275Z,4.15
2019-02-03T13:16:42.780Z,4.08
2019-02-03T13:19:15.646Z,4.03
2019-02-03T13:21:45.530Z,3.97
2019-02-03T13:24:18.619Z,3.96
2019-02-03T13:26:48.354Z,4.03
2019-02-03T13:29:18.851Z,3.83
2019-02-03T13:31:49.319Z,3.87
2019-02-03T13:34:19.977Z,3.82
2019-02-03T13:36:50.420Z,3.80
2019-02-03T13:39:20.924Z,3.81
2019-02-03T13:41:51.432Z,3.81
2019-02-03T13:44:21.968Z,3.89
2019-02-03T13:46:52.587Z,3.82
2019-02-03T13:49:23.108Z,3.91
2019-02-03T13:51:53.578Z,3.89
2019-02-03T13:54:24.128Z,3.84
2019-02-03T13:56:54.638Z,3.92
2019-02-03T13:59:50.140Z,3.93
2019-02-03T14:02:20.752Z,3.84
2019-02-03T14:07:33.701Z,3.75
2019-02-03T14:10:05.363Z,3.70
2019-02-03T14:12:36.044Z,3.69
2019-02-03T14:15:08.796Z,3.63
2019-02-03T14:17:39.663Z,3.60
2019-02-03T14:20:15.838Z,3.68
2019-02-03T14:22:46.429Z,3.64
2019-02-03T14:25:19.105Z,3.69
2019-02-03T14:27:49.945Z,3.73
2019-02-03T14:30:40.359Z,3.71
2019-02-03T14:33:05.984Z,3.66
2019-02-03T14:35:36.454Z,3.73
2019-02-03T14:38:08.176Z,3.79
2019-02-03T14:40:39.149Z,3.68
2019-02-03T14:43:09.785Z,3.78
2019-02-03T14:45:40.273Z,3.66
2019-02-03T14:48:10.880Z,3.65
2019-02-03T14:50:41.521Z,3.56
2019-02-03T14:53:15.477Z,3.58
2019-02-03T14:55:51.632Z,3.53
2019-02-03T14:58:22.314Z,3.54
2019-02-03T15:00:54.127Z,3.52
2019-02-03T15:03:26.752Z,3.51
2019-02-03T15:05:57.279Z,3.47
2019-02-03T15:08:27.773Z,3.44
2019-02-03T15:10:58.266Z,3.41
2019-02-03T15:13:28.806Z,3.34
2019-02-03T15:15:59.341Z,3.43
2019-02-03T15:18:29.817Z,3.35
2019-02-03T15:21:00.355Z,3.33
2019-02-03T15:23:30.831Z,3.29
2019-02-03T15:26:01.440Z,3.27
2019-02-03T15:28:31.969Z,3.27
2019-02-03T15:31:02.465Z,3.28
2019-02-03T15:33:32.964Z,3.13
2019-02-03T15:36:03.519Z,3.11
2019-02-03T15:38:34.037Z,3.03
2019-02-03T15:41:04.725Z,3.00
2019-02-03T15:43:35.276Z,2.96
2019-02-03T15:46:08.017Z,3.00
2019-02-03T15:48:38.547Z,2.86
2019-02-03T15:51:10.077Z,2.84
2019-02-03T15:53:40.726Z,2.80
2019-02-03T15:56:11.474Z,2.78
2019-02-03T15:58:42.102Z,2.72
2019-02-03T16:01:12.611Z,2.62
2019-02-03T16:03:44.926Z,2.62
2019-02-03T16:06:15.638Z,2.54
2019-02-03T16:08:46.153Z,2.53
2019-02-03T16:11:17.006Z,2.49
2019-02-03T16:13:47.585Z,2.46
2019-02-03T16:16:18.179Z,2.44
2019-02-03T16:18:48.806Z,2.39
2019-02-03T16:21:19.552Z,2.33
2019-02-03T16:23:50.208Z,2.32
2019-02-03T16:26:20.931Z,2.33
2019-02-03T16:28:56.223Z,2.35
2019-02-03T16:31:27.434Z,2.31
2019-02-03T16:33:58.248Z,2.30
2019-02-03T16:36:33.479Z,2.24
2019-02-03T16:46:58.389Z,2.12
2019-02-03T16:49:30.635Z,2.10
2019-02-03T16:58:50.500Z,2.10
2019-02-03T17:01:44.058Z,2.05
2019-02-03T17:04:24.385Z,2.06
2019-02-03T17:06:54.929Z,2.06
2019-02-03T17:09:25.422Z,2.03
2019-02-03T17:11:56.301Z,2.01
2019-02-03T17:14:27.800Z,2.05
2019-02-03T17:16:58.490Z,2.00
2019-02-03T17:19:29.109Z,1.98
2019-02-03T17:21:59.961Z,1.94
2019-02-03T17:24:49.994Z,1.83
2019-02-03T17:27:20.536Z,1.84
2019-02-03T17:29:51.143Z,1.81
2019-02-03T17:32:21.918Z,1.83
2019-02-03T17:34:52.543Z,1.80
2019-02-03T17:37:23.408Z,1.75
2019-02-03T17:39:56.792Z,1.72
2019-02-03T17:42:27.272Z,1.68
2019-02-03T17:44:57.938Z,1.68
2019-02-03T17:47:28.518Z,1.71
2019-02-03T17:49:59.360Z,1.70
2019-02-03T17:52:38.660Z,1.68
2019-02-03T17:55:03.700Z,1.72
2019-02-03T17:57:34.418Z,1.77
2019-02-03T18:00:06.001Z,1.71
2019-02-03T18:02:37.880Z,1.69
2019-02-03T18:05:10.929Z,1.67
2019-02-03T18:07:41.801Z,1.75
2019-02-03T18:10:16.413Z,1.65
2019-02-03T18:12:47.016Z,1.64
2019-02-03T18:15:17.904Z,1.67
2019-02-03T18:17:49.069Z,1.61
2019-02-03T18:29:09.013Z,1.51
2019-02-03T18:31:39.605Z,1.49
2019-02-03T18:34:10.153Z,1.52
2019-02-03T18:36:40.716Z,1.42
2019-02-03T18:39:11.796Z,1.36
2019-02-03T18:41:42.366Z,1.35
2019-02-03T18:44:12.975Z,1.37
2019-02-03T18:46:43.943Z,1.40
2019-02-03T18:49:14.632Z,1.45
2019-02-03T18:51:45.821Z,1.41
2019-02-03T18:54:16.396Z,1.45
2019-02-03T18:56:47.429Z,1.36
2019-02-03T18:59:18.070Z,1.30
2019-02-03T19:01:48.899Z,1.33
2019-02-03T19:04:19.915Z,1.26
2019-02-03T19:06:50.910Z,1.23
2019-02-03T19:09:21.701Z,1.23
2019-02-03T19:11:52.482Z,1.18
2019-02-03T19:14:23.507Z,1.11
2019-02-03T19:16:54.401Z,1.06
2019-02-03T19:19:24.995Z,1.07
2019-02-03T19:21:55.647Z,1.02
2019-02-03T19:24:26.687Z,0.99
2019-02-03T19:26:57.922Z,1.04
2019-02-03T19:29:31.789Z,0.99
2019-02-03T19:32:02.553Z,0.96
2019-02-03T19:34:33.308Z,1.02
2019-02-03T19:37:05.596Z,1.07
2019-02-03T19:39:37.866Z,1.06
2019-02-03T19:42:08.707Z,1.07
2019-02-03T19:44:39.454Z,1.09
2019-02-03T19:47:12.346Z,1.05
2019-02-03T19:49:46.648Z,1.01
2019-02-03T19:52:17.054Z,0.96
2019-02-03T19:54:51.842Z,1.02
2019-02-03T19:57:23.215Z,0.91
2019-02-03T19:59:54.586Z,0.94
2019-02-03T20:02:25.570Z,0.87
2019-02-03T20:04:56.412Z,0.85
2019-02-03T20:07:27.274Z,0.84
2019-02-03T20:09:57.895Z,0.89
2019-02-03T20:12:28.672Z,0.81
2019-02-03T20:15:09.620Z,0.81
2019-02-03T20:17:32.299Z,0.86
2019-02-03T20:20:03.958Z,0.81
2019-02-03T20:22:34.621Z,0.75
2019-02-03T20:25:06.430Z,0.74
2019-02-03T20:27:37.133Z,0.71
2019-02-03T20:30:16.123Z,0.69
2019-02-03T20:32:46.820Z,0.69
2019-02-03T20:35:18.367Z,0.65
2019-02-03T20:37:49.215Z,0.66
2019-02-03T20:40:30.388Z,0.65
2019-02-03T20:43:01.352Z,0.61
2019-02-03T20:45:32.040Z,0.67
2019-02-03T20:48:02.917Z,0.72
2019-02-03T20:50:33.522Z,0.69
2019-02-03T20:53:04.188Z,0.70
2019-02-03T20:55:34.829Z,0.69
2019-02-03T20:58:05.469Z,0.76
2019-02-03T21:00:36.948Z,0.72
2019-02-03T21:03:07.969Z,0.86
2019-02-03T21:05:38.702Z,0.75
2019-02-03T21:08:09.333Z,0.78
2019-02-03T21:10:40.049Z,0.75
2019-02-03T21:13:11.727Z,0.75
2019-02-03T21:15:42.840Z,0.80
2019-02-03T21:18:13.485Z,0.77
2019-02-03T21:20:44.705Z,0.81
2019-02-03T21:23:16.655Z,0.84
2019-02-03T21:25:47.236Z,0.75
2019-02-03T21:28:17.922Z,0.75
2019-02-03T21:30:48.806Z,0.77
2019-02-03T21:33:19.605Z,0.76
2019-02-03T21:35:50.184Z,0.69
2019-02-03T21:38:20.997Z,0.69
2019-02-03T21:40:51.613Z,0.65
2019-02-03T21:43:22.441Z,0.59
2019-02-03T21:45:52.992Z,0.64
2019-02-03T21:48:23.503Z,0.55
2019-02-03T21:50:55.424Z,0.52
2019-02-03T21:53:25.982Z,0.51
2019-02-03T21:55:56.682Z,0.47
2019-02-03T21:58:27.190Z,0.47
2019-02-03T22:00:57.664Z,0.42
2019-02-03T22:04:49.549Z,0.39
2019-02-03T22:07:21.957Z,0.41
2019-02-03T22:09:52.457Z,0.34
2019-02-03T22:12:22.947Z,0.43
2019-02-03T22:14:53.477Z,0.41
2019-02-03T22:17:23.968Z,0.35
2019-02-03T22:19:54.775Z,0.34
2019-02-03T22:22:25.319Z,0.29
2019-02-03T22:24:55.826Z,0.25
2019-02-03T22:27:26.372Z,0.19
2019-02-03T22:29:57.001Z,0.17
2019-02-03T22:32:27.784Z,0.18
2019-02-03T22:34:58.282Z,0.20
2019-02-03T22:37:28.780Z,0.15
2019-02-03T22:39:59.379Z,0.15
2019-02-03T22:42:29.921Z,0.05
2019-02-03T22:45:00.578Z,0.08
2019-02-03T22:47:31.080Z,0.05
2019-02-03T22:50:01.601Z,-0.06
2019-02-03T22:52:32.119Z,-0.11
2019-02-03T22:55:02.652Z,-0.16
2019-02-03T22:57:33.518Z,-0.13
2019-02-03T23:00:11.351Z,-0.25
2019-02-03T23:02:41.902Z,-0.28
2019-02-03T23:05:12.537Z,-0.29
2019-02-03T23:07:43.029Z,-0.18
2019-02-03T23:10:13.592Z,-0.22
2019-02-03T23:12:44.158Z,-0.31
2019-02-03T23:15:14.819Z,-0.45
2019-02-03T23:17:45.325Z,-0.62
2019-02-03T23:20:15.838Z,-0.71
2019-02-03T23:22:46.373Z,-0.81
2019-02-03T23:25:16.850Z,-0.90
2019-02-03T23:27:47.351Z,-1.06
2019-02-03T23:30:18.174Z,-1.06
2019-02-03T23:32:48.685Z,-1.10
2019-02-03T23:35:19.474Z,-1.16
2019-02-03T23:37:50.012Z,-1.20
2019-02-03T23:40:21.092Z,-1.25
2019-02-03T23:42:51.599Z,-1.27
2019-02-03T23:45:22.110Z,-1.34
2019-02-03T23:47:52.912Z,-1.38
2019-02-03T23:50:23.423Z,-1.44
2019-02-03T23:52:53.948Z,-1.41
2019-02-03T23:55:24.443Z,-1.45
2019-02-03T23:57:54.935Z,-1.45
